This is the latest recevied weather packets stored in our database for station/object EA1FBN. If no packets are shown the sender has not sent any weather packets the latest 10 day(s).
| Time | Temp. | Humidity | Pressure | Rain* | Wind** | Luminosity | Snow |
|---|---|---|---|---|---|---|---|
| 1787760327 | 18.33° C | 62% | 1009.7 hPa | 0 mm | - | - | - |
| 1787760027 | 18.33° C | 62% | 1009.8 hPa | 0 mm | - | - | - |
| 1787759727 | 18.33° C | 62% | 1009.9 hPa | 0.25 mm | - | - | - |
| 1787759427 | 18.33° C | 62% | 1009.9 hPa | 0.25 mm | - | - | - |
| 1787759127 | 18.33° C | 62% | 1009.9 hPa | 0.25 mm | - | - | - |
| 1787758827 | 18.33° C | 62% | 1009.8 hPa | 0.25 mm | - | - | - |
| 1787758527 | 18.89° C | 62% | 1009.8 hPa | 0.25 mm | - | - | - |
| 1787758227 | 18.89° C | 61% | 1009.8 hPa | 0.25 mm | - | - | - |
| 1787757927 | 18.89° C | 61% | 1009.6 hPa | 0.25 mm | - | - | - |
| 1787757627 | 18.89° C | 62% | 1009.6 hPa | 0.25 mm | - | - | - |
| 1787757327 | 18.89° C | 62% | 1009.6 hPa | 0.25 mm | - | - | - |
| 1787757027 | 18.33° C | 62% | 1009.7 hPa | 0.25 mm | - | - | - |
| 1787756728 | 18.33° C | 63% | 1009.6 hPa | 0.25 mm | - | - | - |
| 1787756428 | 18.33° C | 64% | 1009.5 hPa | 0.25 mm | - | - | - |
| 1787756128 | 18.33° C | 65% | 1009.6 hPa | 0 mm | - | - | - |
| 1787755827 | 18.33° C | 66% | 1009.7 hPa | 0 mm | - | - | - |
| 1787755528 | 18.33° C | 69% | 1009.8 hPa | 0 mm | - | - | - |
| 1787755227 | 17.78° C | 69% | 1009.8 hPa | 0 mm | - | - | - |
| 1787754928 | 17.22° C | 71% | 1009.5 hPa | 0 mm | - | - | - |
| 1787754628 | 17.22° C | 71% | 1009.4 hPa | 0 mm | - | - | - |
| 1787754328 | 17.78° C | 71% | 1009.6 hPa | 0 mm | - | - | - |
| 1787754028 | 18.89° C | 66% | 1009.9 hPa | 0 mm | - | - | - |
| 1787753728 | 20.56° C | 59% | 1009.7 hPa | 0 mm | - | - | - |
| 1787753428 | 21.67° C | 54% | 1009.6 hPa | 0 mm | - | - | - |
| 1787753128 | 21.67° C | 53% | 1009.3 hPa | 0 mm | - | - | - |
* Rain latest hour (hover to see other rain measurements)
** Current wind speed in m/s (hover to see current wind gust speed)